Terminal Aerodrome Forecast
Issued by NWS Missoula, MT

Home | Current Version | Previous Version | Text Only | Print | Product List | Glossary On
Versions: 1 2 3 4 5 6 7 8 9 10 11 12 13 14 15 16 17
000
FTUS45 KMSO 291137
TAFMSO
TAF
KMSO 291137Z 2912/3012 16008KT 3SM FU VCSH OVC100
     FM291700 19014G25KT 5SM FU SCT100
     FM291900 21014G25KT 6SM FU VCSH OVC100
     FM300100 31015G28KT P6SM SCT050 BKN090
     FM300300 31008KT P6SM SCT060 BKN100=

USA.gov is the U.S. government's official web portal to all federal, state and local government web resources and services.